sensor_id;sensor_type;location;lat;lon;timestamp;temperature;humidity
10316;DHT22;5203;48.976;8.306;2024-02-23T00:00:27;7.50;87.70
10316;DHT22;5203;48.976;8.306;2024-02-23T00:02:53;7.60;88.20
10316;DHT22;5203;48.976;8.306;2024-02-23T00:05:23;7.50;87.70
10316;DHT22;5203;48.976;8.306;2024-02-23T00:07:49;7.50;86.50
10316;DHT22;5203;48.976;8.306;2024-02-23T00:10:14;7.50;86.40
10316;DHT22;5203;48.976;8.306;2024-02-23T00:12:41;7.50;85.90
10316;DHT22;5203;48.976;8.306;2024-02-23T00:15:09;7.50;85.70
10316;DHT22;5203;48.976;8.306;2024-02-23T00:17:34;7.50;86.30
10316;DHT22;5203;48.976;8.306;2024-02-23T00:20:00;7.50;85.40
10316;DHT22;5203;48.976;8.306;2024-02-23T00:22:25;7.50;86.00
10316;DHT22;5203;48.976;8.306;2024-02-23T00:24:51;7.40;85.70
10316;DHT22;5203;48.976;8.306;2024-02-23T00:27:17;7.40;85.20
10316;DHT22;5203;48.976;8.306;2024-02-23T00:29:42;7.40;86.40
10316;DHT22;5203;48.976;8.306;2024-02-23T00:32:08;7.40;87.00
10316;DHT22;5203;48.976;8.306;2024-02-23T00:34:34;7.30;87.70
10316;DHT22;5203;48.976;8.306;2024-02-23T00:37:00;7.30;88.10
10316;DHT22;5203;48.976;8.306;2024-02-23T00:39:25;7.20;86.50
10316;DHT22;5203;48.976;8.306;2024-02-23T00:41:51;7.20;87.80
10316;DHT22;5203;48.976;8.306;2024-02-23T00:44:16;7.20;86.90
10316;DHT22;5203;48.976;8.306;2024-02-23T00:46:42;7.20;84.70
10316;DHT22;5203;48.976;8.306;2024-02-23T00:49:07;7.20;85.10
10316;DHT22;5203;48.976;8.306;2024-02-23T00:51:33;7.30;85.50
10316;DHT22;5203;48.976;8.306;2024-02-23T00:53:59;7.20;86.10
10316;DHT22;5203;48.976;8.306;2024-02-23T00:56:25;7.20;85.60
10316;DHT22;5203;48.976;8.306;2024-02-23T00:58:51;7.20;86.20
10316;DHT22;5203;48.976;8.306;2024-02-23T01:01:16;7.20;84.90
10316;DHT22;5203;48.976;8.306;2024-02-23T01:03:42;7.20;83.70
10316;DHT22;5203;48.976;8.306;2024-02-23T01:06:08;7.20;84.70
10316;DHT22;5203;48.976;8.306;2024-02-23T01:08:33;7.20;84.20
10316;DHT22;5203;48.976;8.306;2024-02-23T01:11:00;7.20;85.90
10316;DHT22;5203;48.976;8.306;2024-02-23T01:13:25;7.10;85.60
10316;DHT22;5203;48.976;8.306;2024-02-23T01:15:51;7.10;84.70
10316;DHT22;5203;48.976;8.306;2024-02-23T01:18:17;7.10;85.40
10316;DHT22;5203;48.976;8.306;2024-02-23T01:20:42;7.10;82.00
10316;DHT22;5203;48.976;8.306;2024-02-23T01:23:08;7.20;83.30
10316;DHT22;5203;48.976;8.306;2024-02-23T01:25:33;7.20;84.50
10316;DHT22;5203;48.976;8.306;2024-02-23T01:28:00;7.10;85.20
10316;DHT22;5203;48.976;8.306;2024-02-23T01:30:25;7.00;85.40
10316;DHT22;5203;48.976;8.306;2024-02-23T01:32:51;7.00;85.60
10316;DHT22;5203;48.976;8.306;2024-02-23T01:35:17;7.00;86.20
10316;DHT22;5203;48.976;8.306;2024-02-23T01:37:43;7.00;86.00
10316;DHT22;5203;48.976;8.306;2024-02-23T01:40:09;6.90;86.60
10316;DHT22;5203;48.976;8.306;2024-02-23T01:42:34;6.90;85.10
10316;DHT22;5203;48.976;8.306;2024-02-23T01:45:00;6.90;84.20
10316;DHT22;5203;48.976;8.306;2024-02-23T01:47:28;7.00;83.60
10316;DHT22;5203;48.976;8.306;2024-02-23T01:49:55;6.90;85.10
10316;DHT22;5203;48.976;8.306;2024-02-23T01:52:21;6.90;83.90
10316;DHT22;5203;48.976;8.306;2024-02-23T01:54:47;6.90;84.80
10316;DHT22;5203;48.976;8.306;2024-02-23T01:57:14;6.80;84.80
10316;DHT22;5203;48.976;8.306;2024-02-23T01:59:39;6.90;84.40
10316;DHT22;5203;48.976;8.306;2024-02-23T02:02:06;6.80;83.50
10316;DHT22;5203;48.976;8.306;2024-02-23T02:04:32;6.80;82.70
10316;DHT22;5203;48.976;8.306;2024-02-23T02:06:59;6.90;82.30
10316;DHT22;5203;48.976;8.306;2024-02-23T02:09:25;6.90;82.60
10316;DHT22;5203;48.976;8.306;2024-02-23T02:11:51;6.90;81.50
10316;DHT22;5203;48.976;8.306;2024-02-23T02:14:17;6.80;81.90
10316;DHT22;5203;48.976;8.306;2024-02-23T02:16:43;6.90;82.80
10316;DHT22;5203;48.976;8.306;2024-02-23T02:19:10;6.90;81.20
10316;DHT22;5203;48.976;8.306;2024-02-23T02:21:37;6.90;82.10
10316;DHT22;5203;48.976;8.306;2024-02-23T02:24:03;6.90;83.90
10316;DHT22;5203;48.976;8.306;2024-02-23T02:26:29;6.80;84.10
10316;DHT22;5203;48.976;8.306;2024-02-23T02:28:55;6.80;85.00
10316;DHT22;5203;48.976;8.306;2024-02-23T02:31:20;6.80;85.80
10316;DHT22;5203;48.976;8.306;2024-02-23T02:33:46;6.70;86.50
10316;DHT22;5203;48.976;8.306;2024-02-23T02:36:12;6.70;86.00
10316;DHT22;5203;48.976;8.306;2024-02-23T02:38:38;6.70;85.80
10316;DHT22;5203;48.976;8.306;2024-02-23T02:41:05;6.70;86.30
10316;DHT22;5203;48.976;8.306;2024-02-23T02:43:31;6.70;84.80
10316;DHT22;5203;48.976;8.306;2024-02-23T02:45:57;6.70;85.90
10316;DHT22;5203;48.976;8.306;2024-02-23T02:48:23;6.60;85.60
10316;DHT22;5203;48.976;8.306;2024-02-23T02:50:49;6.70;84.90
10316;DHT22;5203;48.976;8.306;2024-02-23T02:53:15;6.70;85.70
10316;DHT22;5203;48.976;8.306;2024-02-23T02:55:44;6.70;86.20
10316;DHT22;5203;48.976;8.306;2024-02-23T02:58:14;6.70;85.90
10316;DHT22;5203;48.976;8.306;2024-02-23T03:00:39;6.70;86.00
10316;DHT22;5203;48.976;8.306;2024-02-23T03:03:05;6.70;83.10
10316;DHT22;5203;48.976;8.306;2024-02-23T03:05:31;6.70;83.50
10316;DHT22;5203;48.976;8.306;2024-02-23T03:07:57;6.70;83.20
10316;DHT22;5203;48.976;8.306;2024-02-23T03:10:22;6.70;82.60
10316;DHT22;5203;48.976;8.306;2024-02-23T03:12:48;6.60;81.30
10316;DHT22;5203;48.976;8.306;2024-02-23T03:15:13;6.60;81.70
10316;DHT22;5203;48.976;8.306;2024-02-23T03:17:39;6.50;80.40
10316;DHT22;5203;48.976;8.306;2024-02-23T03:20:05;6.50;78.60
10316;DHT22;5203;48.976;8.306;2024-02-23T03:22:37;6.50;77.50
10316;DHT22;5203;48.976;8.306;2024-02-23T03:25:04;6.50;77.90
10316;DHT22;5203;48.976;8.306;2024-02-23T03:27:34;6.50;78.40
10316;DHT22;5203;48.976;8.306;2024-02-23T03:30:02;6.50;76.70
10316;DHT22;5203;48.976;8.306;2024-02-23T03:32:28;6.40;78.00
10316;DHT22;5203;48.976;8.306;2024-02-23T03:34:53;6.50;77.10
10316;DHT22;5203;48.976;8.306;2024-02-23T03:37:19;6.40;77.30
10316;DHT22;5203;48.976;8.306;2024-02-23T03:39:46;6.50;77.30
10316;DHT22;5203;48.976;8.306;2024-02-23T03:42:14;6.50;77.60
10316;DHT22;5203;48.976;8.306;2024-02-23T03:44:40;6.50;78.30
10316;DHT22;5203;48.976;8.306;2024-02-23T03:47:08;6.50;78.20
10316;DHT22;5203;48.976;8.306;2024-02-23T03:49:33;6.50;78.70
10316;DHT22;5203;48.976;8.306;2024-02-23T03:51:59;6.50;79.70
10316;DHT22;5203;48.976;8.306;2024-02-23T03:54:25;6.50;79.00
10316;DHT22;5203;48.976;8.306;2024-02-23T03:56:50;6.40;80.30
10316;DHT22;5203;48.976;8.306;2024-02-23T03:59:16;6.50;79.00
10316;DHT22;5203;48.976;8.306;2024-02-23T04:01:41;6.50;79.20
10316;DHT22;5203;48.976;8.306;2024-02-23T04:04:07;6.40;79.20
10316;DHT22;5203;48.976;8.306;2024-02-23T04:06:36;6.40;80.10
10316;DHT22;5203;48.976;8.306;2024-02-23T04:09:02;6.40;79.60
10316;DHT22;5203;48.976;8.306;2024-02-23T04:11:30;6.40;79.50
10316;DHT22;5203;48.976;8.306;2024-02-23T04:13:56;6.40;80.80
10316;DHT22;5203;48.976;8.306;2024-02-23T04:16:23;6.40;80.40
10316;DHT22;5203;48.976;8.306;2024-02-23T04:18:49;6.40;80.10
10316;DHT22;5203;48.976;8.306;2024-02-23T04:21:15;6.40;79.90
10316;DHT22;5203;48.976;8.306;2024-02-23T04:23:40;6.40;80.10
10316;DHT22;5203;48.976;8.306;2024-02-23T04:26:06;6.40;79.90
10316;DHT22;5203;48.976;8.306;2024-02-23T04:28:32;6.40;79.10
10316;DHT22;5203;48.976;8.306;2024-02-23T04:30:59;6.40;78.60
10316;DHT22;5203;48.976;8.306;2024-02-23T04:33:25;6.40;78.70
10316;DHT22;5203;48.976;8.306;2024-02-23T04:35:50;6.40;79.40
10316;DHT22;5203;48.976;8.306;2024-02-23T04:38:16;6.30;79.20
10316;DHT22;5203;48.976;8.306;2024-02-23T04:40:41;6.30;78.90
10316;DHT22;5203;48.976;8.306;2024-02-23T04:43:07;6.30;78.00
10316;DHT22;5203;48.976;8.306;2024-02-23T04:45:33;6.30;77.80
10316;DHT22;5203;48.976;8.306;2024-02-23T04:47:58;6.30;75.80
10316;DHT22;5203;48.976;8.306;2024-02-23T04:50:24;6.30;76.40
10316;DHT22;5203;48.976;8.306;2024-02-23T04:52:49;6.30;76.20
10316;DHT22;5203;48.976;8.306;2024-02-23T04:55:15;6.40;75.70
10316;DHT22;5203;48.976;8.306;2024-02-23T04:57:41;6.30;75.70
10316;DHT22;5203;48.976;8.306;2024-02-23T05:00:07;6.30;76.10
10316;DHT22;5203;48.976;8.306;2024-02-23T05:02:33;6.40;76.50
10316;DHT22;5203;48.976;8.306;2024-02-23T05:05:02;6.30;76.40
10316;DHT22;5203;48.976;8.306;2024-02-23T05:07:30;6.30;76.90
10316;DHT22;5203;48.976;8.306;2024-02-23T05:09:56;6.30;75.90
10316;DHT22;5203;48.976;8.306;2024-02-23T05:12:22;6.30;76.20
10316;DHT22;5203;48.976;8.306;2024-02-23T05:14:47;6.30;77.10
10316;DHT22;5203;48.976;8.306;2024-02-23T05:17:13;6.30;76.60
10316;DHT22;5203;48.976;8.306;2024-02-23T05:19:38;6.20;76.50
10316;DHT22;5203;48.976;8.306;2024-02-23T05:22:04;6.20;76.90
10316;DHT22;5203;48.976;8.306;2024-02-23T05:24:31;6.30;77.10
10316;DHT22;5203;48.976;8.306;2024-02-23T05:26:57;6.20;76.70
10316;DHT22;5203;48.976;8.306;2024-02-23T05:29:28;6.20;77.50
10316;DHT22;5203;48.976;8.306;2024-02-23T05:31:53;6.10;77.90
10316;DHT22;5203;48.976;8.306;2024-02-23T05:34:19;6.10;77.90
10316;DHT22;5203;48.976;8.306;2024-02-23T05:36:45;6.10;78.00
10316;DHT22;5203;48.976;8.306;2024-02-23T05:39:12;6.10;78.10
10316;DHT22;5203;48.976;8.306;2024-02-23T05:41:38;6.00;78.60
10316;DHT22;5203;48.976;8.306;2024-02-23T05:44:04;6.00;77.20
10316;DHT22;5203;48.976;8.306;2024-02-23T05:46:35;6.00;78.80
10316;DHT22;5203;48.976;8.306;2024-02-23T05:49:01;5.80;78.10
10316;DHT22;5203;48.976;8.306;2024-02-23T05:51:28;5.80;77.80
10316;DHT22;5203;48.976;8.306;2024-02-23T05:53:58;5.80;77.30
10316;DHT22;5203;48.976;8.306;2024-02-23T05:56:24;5.70;77.30
10316;DHT22;5203;48.976;8.306;2024-02-23T05:58:50;5.70;77.20
10316;DHT22;5203;48.976;8.306;2024-02-23T06:01:16;5.70;77.10
10316;DHT22;5203;48.976;8.306;2024-02-23T06:03:42;5.70;77.80
10316;DHT22;5203;48.976;8.306;2024-02-23T06:06:08;5.60;77.20
10316;DHT22;5203;48.976;8.306;2024-02-23T06:08:34;5.60;77.00
10316;DHT22;5203;48.976;8.306;2024-02-23T06:10:59;5.60;77.60
10316;DHT22;5203;48.976;8.306;2024-02-23T06:13:25;5.50;77.00
10316;DHT22;5203;48.976;8.306;2024-02-23T06:15:51;5.60;76.50
10316;DHT22;5203;48.976;8.306;2024-02-23T06:18:17;5.60;76.50
10316;DHT22;5203;48.976;8.306;2024-02-23T06:20:42;5.50;77.50
10316;DHT22;5203;48.976;8.306;2024-02-23T06:23:08;5.60;77.50
10316;DHT22;5203;48.976;8.306;2024-02-23T06:25:34;5.60;77.00
10316;DHT22;5203;48.976;8.306;2024-02-23T06:27:59;5.60;77.40
10316;DHT22;5203;48.976;8.306;2024-02-23T06:30:25;5.60;78.10
10316;DHT22;5203;48.976;8.306;2024-02-23T06:32:51;5.70;78.60
10316;DHT22;5203;48.976;8.306;2024-02-23T06:35:16;5.70;79.30
10316;DHT22;5203;48.976;8.306;2024-02-23T06:37:42;5.60;79.60
10316;DHT22;5203;48.976;8.306;2024-02-23T06:40:08;5.70;79.80
10316;DHT22;5203;48.976;8.306;2024-02-23T06:42:34;5.70;80.60
10316;DHT22;5203;48.976;8.306;2024-02-23T06:44:59;5.70;81.80
10316;DHT22;5203;48.976;8.306;2024-02-23T06:47:26;5.70;82.80
10316;DHT22;5203;48.976;8.306;2024-02-23T06:49:55;5.70;83.90
10316;DHT22;5203;48.976;8.306;2024-02-23T06:52:24;5.70;84.60
10316;DHT22;5203;48.976;8.306;2024-02-23T06:54:51;5.60;84.90
10316;DHT22;5203;48.976;8.306;2024-02-23T06:57:17;5.60;85.00
10316;DHT22;5203;48.976;8.306;2024-02-23T06:59:46;5.70;83.90
10316;DHT22;5203;48.976;8.306;2024-02-23T07:02:11;5.60;83.70
10316;DHT22;5203;48.976;8.306;2024-02-23T07:04:37;5.60;83.40
10316;DHT22;5203;48.976;8.306;2024-02-23T07:07:05;5.60;83.10
10316;DHT22;5203;48.976;8.306;2024-02-23T07:09:36;5.60;83.80
10316;DHT22;5203;48.976;8.306;2024-02-23T07:12:02;5.60;83.70
10316;DHT22;5203;48.976;8.306;2024-02-23T07:14:28;5.60;84.10
10316;DHT22;5203;48.976;8.306;2024-02-23T07:16:54;5.50;84.00
10316;DHT22;5203;48.976;8.306;2024-02-23T07:19:19;5.60;83.40
10316;DHT22;5203;48.976;8.306;2024-02-23T07:21:46;5.60;83.40
10316;DHT22;5203;48.976;8.306;2024-02-23T07:24:11;5.60;83.40
10316;DHT22;5203;48.976;8.306;2024-02-23T07:26:37;5.60;83.00
10316;DHT22;5203;48.976;8.306;2024-02-23T07:29:06;5.60;83.60
10316;DHT22;5203;48.976;8.306;2024-02-23T07:31:32;5.60;82.40
10316;DHT22;5203;48.976;8.306;2024-02-23T07:33:58;5.60;82.40
10316;DHT22;5203;48.976;8.306;2024-02-23T07:36:24;5.60;82.70
10316;DHT22;5203;48.976;8.306;2024-02-23T07:38:50;5.60;83.50
10316;DHT22;5203;48.976;8.306;2024-02-23T07:41:24;5.60;82.90
10316;DHT22;5203;48.976;8.306;2024-02-23T07:43:55;5.70;82.90
10316;DHT22;5203;48.976;8.306;2024-02-23T07:46:21;5.80;83.00
10316;DHT22;5203;48.976;8.306;2024-02-23T07:48:48;5.90;83.00
10316;DHT22;5203;48.976;8.306;2024-02-23T07:51:14;5.90;81.80
10316;DHT22;5203;48.976;8.306;2024-02-23T07:53:39;6.00;81.30
10316;DHT22;5203;48.976;8.306;2024-02-23T07:56:07;6.00;82.00
10316;DHT22;5203;48.976;8.306;2024-02-23T07:58:33;6.10;80.90
10316;DHT22;5203;48.976;8.306;2024-02-23T08:01:01;6.20;81.40
10316;DHT22;5203;48.976;8.306;2024-02-23T08:03:28;6.30;78.00
10316;DHT22;5203;48.976;8.306;2024-02-23T08:05:53;6.30;77.70
10316;DHT22;5203;48.976;8.306;2024-02-23T08:08:19;6.40;76.20
10316;DHT22;5203;48.976;8.306;2024-02-23T08:10:48;6.40;76.50
10316;DHT22;5203;48.976;8.306;2024-02-23T08:13:13;6.50;76.30
10316;DHT22;5203;48.976;8.306;2024-02-23T08:15:39;6.60;74.90
10316;DHT22;5203;48.976;8.306;2024-02-23T08:18:05;6.70;73.10
10316;DHT22;5203;48.976;8.306;2024-02-23T08:20:30;6.80;71.90
10316;DHT22;5203;48.976;8.306;2024-02-23T08:22:56;6.90;73.00
10316;DHT22;5203;48.976;8.306;2024-02-23T08:25:23;7.10;70.60
10316;DHT22;5203;48.976;8.306;2024-02-23T08:27:49;7.30;69.50
10316;DHT22;5203;48.976;8.306;2024-02-23T08:30:15;7.30;69.90
10316;DHT22;5203;48.976;8.306;2024-02-23T08:32:41;7.30;68.50
10316;DHT22;5203;48.976;8.306;2024-02-23T08:35:07;7.40;67.60
10316;DHT22;5203;48.976;8.306;2024-02-23T08:37:33;7.40;65.10
10316;DHT22;5203;48.976;8.306;2024-02-23T08:39:59;7.40;64.50
10316;DHT22;5203;48.976;8.306;2024-02-23T08:42:25;7.50;65.40
10316;DHT22;5203;48.976;8.306;2024-02-23T08:44:51;7.50;65.10
10316;DHT22;5203;48.976;8.306;2024-02-23T08:47:16;7.60;65.30
10316;DHT22;5203;48.976;8.306;2024-02-23T08:49:42;7.80;62.70
10316;DHT22;5203;48.976;8.306;2024-02-23T08:52:08;8.00;62.90
10316;DHT22;5203;48.976;8.306;2024-02-23T08:54:33;8.10;60.10
10316;DHT22;5203;48.976;8.306;2024-02-23T08:56:59;8.30;61.00
10316;DHT22;5203;48.976;8.306;2024-02-23T08:59:24;8.50;59.10
10316;DHT22;5203;48.976;8.306;2024-02-23T09:01:50;8.50;60.10
10316;DHT22;5203;48.976;8.306;2024-02-23T09:04:16;8.50;60.30
10316;DHT22;5203;48.976;8.306;2024-02-23T09:06:41;8.50;60.10
10316;DHT22;5203;48.976;8.306;2024-02-23T09:09:07;8.40;60.10
10316;DHT22;5203;48.976;8.306;2024-02-23T09:11:34;8.50;62.50
10316;DHT22;5203;48.976;8.306;2024-02-23T09:13:59;8.70;61.10
10316;DHT22;5203;48.976;8.306;2024-02-23T09:16:25;8.50;59.40
10316;DHT22;5203;48.976;8.306;2024-02-23T09:18:51;8.60;61.30
10316;DHT22;5203;48.976;8.306;2024-02-23T09:21:17;8.70;61.50
10316;DHT22;5203;48.976;8.306;2024-02-23T09:23:42;8.60;59.70
10316;DHT22;5203;48.976;8.306;2024-02-23T09:26:11;8.40;59.30
10316;DHT22;5203;48.976;8.306;2024-02-23T09:28:38;8.60;60.00
10316;DHT22;5203;48.976;8.306;2024-02-23T09:31:03;8.70;61.30
10316;DHT22;5203;48.976;8.306;2024-02-23T09:33:30;8.80;61.90
10316;DHT22;5203;48.976;8.306;2024-02-23T09:35:57;8.70;59.80
10316;DHT22;5203;48.976;8.306;2024-02-23T09:38:22;8.50;61.10
10316;DHT22;5203;48.976;8.306;2024-02-23T09:40:51;8.60;62.20
10316;DHT22;5203;48.976;8.306;2024-02-23T09:43:18;8.50;62.10
10316;DHT22;5203;48.976;8.306;2024-02-23T09:45:46;8.50;61.40
10316;DHT22;5203;48.976;8.306;2024-02-23T09:48:14;8.50;61.20
10316;DHT22;5203;48.976;8.306;2024-02-23T09:50:42;8.50;62.10
10316;DHT22;5203;48.976;8.306;2024-02-23T09:53:10;8.80;64.50
10316;DHT22;5203;48.976;8.306;2024-02-23T09:55:37;8.80;62.20
10316;DHT22;5203;48.976;8.306;2024-02-23T09:58:03;8.80;61.40
10316;DHT22;5203;48.976;8.306;2024-02-23T10:00:30;9.00;62.50
10316;DHT22;5203;48.976;8.306;2024-02-23T10:02:58;9.00;59.70
10316;DHT22;5203;48.976;8.306;2024-02-23T10:05:29;8.90;61.60
10316;DHT22;5203;48.976;8.306;2024-02-23T10:07:56;8.90;60.10
10316;DHT22;5203;48.976;8.306;2024-02-23T10:10:33;8.90;60.10
10316;DHT22;5203;48.976;8.306;2024-02-23T10:12:59;9.10;59.30
10316;DHT22;5203;48.976;8.306;2024-02-23T10:15:25;9.20;57.70
10316;DHT22;5203;48.976;8.306;2024-02-23T10:17:51;9.10;57.70
10316;DHT22;5203;48.976;8.306;2024-02-23T10:20:19;9.00;57.50
10316;DHT22;5203;48.976;8.306;2024-02-23T10:22:45;9.20;59.20
10316;DHT22;5203;48.976;8.306;2024-02-23T10:25:11;9.20;54.70
10316;DHT22;5203;48.976;8.306;2024-02-23T10:27:37;9.40;55.20
10316;DHT22;5203;48.976;8.306;2024-02-23T10:30:03;9.50;56.80
10316;DHT22;5203;48.976;8.306;2024-02-23T10:32:29;9.40;55.30
10316;DHT22;5203;48.976;8.306;2024-02-23T10:35:00;9.60;55.40
10316;DHT22;5203;48.976;8.306;2024-02-23T10:37:30;9.60;55.90
10316;DHT22;5203;48.976;8.306;2024-02-23T10:39:57;9.50;56.40
10316;DHT22;5203;48.976;8.306;2024-02-23T10:42:24;9.50;56.40
10316;DHT22;5203;48.976;8.306;2024-02-23T10:44:52;10.00;54.10
10316;DHT22;5203;48.976;8.306;2024-02-23T10:47:21;9.80;53.40
10316;DHT22;5203;48.976;8.306;2024-02-23T10:49:48;9.60;55.40
10316;DHT22;5203;48.976;8.306;2024-02-23T10:52:15;9.60;55.00
10316;DHT22;5203;48.976;8.306;2024-02-23T10:54:46;9.30;57.40
10316;DHT22;5203;48.976;8.306;2024-02-23T10:57:13;9.20;58.40
10316;DHT22;5203;48.976;8.306;2024-02-23T10:59:39;9.10;59.80
10316;DHT22;5203;48.976;8.306;2024-02-23T11:02:05;9.10;59.70
10316;DHT22;5203;48.976;8.306;2024-02-23T11:04:32;9.00;59.60
10316;DHT22;5203;48.976;8.306;2024-02-23T11:06:59;9.10;60.90
10316;DHT22;5203;48.976;8.306;2024-02-23T11:09:31;9.20;59.80
10316;DHT22;5203;48.976;8.306;2024-02-23T11:11:58;9.20;60.60
10316;DHT22;5203;48.976;8.306;2024-02-23T11:14:36;9.30;60.30
10316;DHT22;5203;48.976;8.306;2024-02-23T11:17:02;9.30;61.30
10316;DHT22;5203;48.976;8.306;2024-02-23T11:19:36;9.40;60.40
10316;DHT22;5203;48.976;8.306;2024-02-23T11:22:03;9.20;61.60
10316;DHT22;5203;48.976;8.306;2024-02-23T11:24:30;9.10;61.00
10316;DHT22;5203;48.976;8.306;2024-02-23T11:26:57;9.30;60.70
10316;DHT22;5203;48.976;8.306;2024-02-23T11:29:29;9.50;58.60
10316;DHT22;5203;48.976;8.306;2024-02-23T11:31:55;9.50;61.10
10316;DHT22;5203;48.976;8.306;2024-02-23T11:34:30;9.70;59.70
10316;DHT22;5203;48.976;8.306;2024-02-23T11:36:56;10.00;57.40
10316;DHT22;5203;48.976;8.306;2024-02-23T11:39:23;10.00;56.20
10316;DHT22;5203;48.976;8.306;2024-02-23T11:41:50;9.90;57.40
10316;DHT22;5203;48.976;8.306;2024-02-23T11:44:16;9.80;55.70
10316;DHT22;5203;48.976;8.306;2024-02-23T11:46:43;9.70;58.40
10316;DHT22;5203;48.976;8.306;2024-02-23T11:49:10;10.00;56.80
10316;DHT22;5203;48.976;8.306;2024-02-23T11:51:36;10.00;56.80
10316;DHT22;5203;48.976;8.306;2024-02-23T11:54:02;10.30;55.80
10316;DHT22;5203;48.976;8.306;2024-02-23T11:56:29;10.50;55.30
10316;DHT22;5203;48.976;8.306;2024-02-23T11:58:55;10.40;52.90
10316;DHT22;5203;48.976;8.306;2024-02-23T12:01:21;10.20;53.80
10316;DHT22;5203;48.976;8.306;2024-02-23T12:03:47;10.10;55.40
10316;DHT22;5203;48.976;8.306;2024-02-23T12:06:14;9.80;54.70
10316;DHT22;5203;48.976;8.306;2024-02-23T12:08:43;9.90;56.30
10316;DHT22;5203;48.976;8.306;2024-02-23T12:11:11;9.90;56.20
10316;DHT22;5203;48.976;8.306;2024-02-23T12:13:38;10.00;57.40
10316;DHT22;5203;48.976;8.306;2024-02-23T12:16:04;10.30;55.80
10316;DHT22;5203;48.976;8.306;2024-02-23T12:18:33;10.50;56.40
10316;DHT22;5203;48.976;8.306;2024-02-23T12:21:00;10.80;55.40
10316;DHT22;5203;48.976;8.306;2024-02-23T12:23:26;10.70;53.00
10316;DHT22;5203;48.976;8.306;2024-02-23T12:25:56;11.20;54.60
10316;DHT22;5203;48.976;8.306;2024-02-23T12:28:23;11.10;50.50
10316;DHT22;5203;48.976;8.306;2024-02-23T12:31:02;11.10;51.70
10316;DHT22;5203;48.976;8.306;2024-02-23T12:33:29;10.70;52.30
10316;DHT22;5203;48.976;8.306;2024-02-23T12:36:01;10.40;53.70
10316;DHT22;5203;48.976;8.306;2024-02-23T12:38:27;10.30;53.90
10316;DHT22;5203;48.976;8.306;2024-02-23T12:40:53;10.30;54.50
10316;DHT22;5203;48.976;8.306;2024-02-23T12:43:20;10.00;54.10
10316;DHT22;5203;48.976;8.306;2024-02-23T12:45:57;10.00;55.90
10316;DHT22;5203;48.976;8.306;2024-02-23T12:51:19;10.00;55.00
10316;DHT22;5203;48.976;8.306;2024-02-23T12:54:18;9.80;54.80
10316;DHT22;5203;48.976;8.306;2024-02-23T12:56:44;9.90;57.20
10316;DHT22;5203;48.976;8.306;2024-02-23T12:59:12;10.10;55.60
10316;DHT22;5203;48.976;8.306;2024-02-23T13:01:41;10.20;55.20
10316;DHT22;5203;48.976;8.306;2024-02-23T13:04:07;10.20;55.80
10316;DHT22;5203;48.976;8.306;2024-02-23T13:06:59;10.70;53.90
10316;DHT22;5203;48.976;8.306;2024-02-23T13:13:46;10.70;53.10
10316;DHT22;5203;48.976;8.306;2024-02-23T13:23:00;10.90;51.10
10316;DHT22;5203;48.976;8.306;2024-02-23T13:29:00;12.50;46.40
10316;DHT22;5203;48.976;8.306;2024-02-23T13:31:26;12.50;45.40
10316;DHT22;5203;48.976;8.306;2024-02-23T13:33:51;12.90;45.20
10316;DHT22;5203;48.976;8.306;2024-02-23T13:36:17;12.80;43.20
10316;DHT22;5203;48.976;8.306;2024-02-23T13:38:43;12.40;45.00
10316;DHT22;5203;48.976;8.306;2024-02-23T13:41:08;12.30;46.50
10316;DHT22;5203;48.976;8.306;2024-02-23T13:43:34;13.20;46.10
10316;DHT22;5203;48.976;8.306;2024-02-23T13:46:00;13.50;43.60
10316;DHT22;5203;48.976;8.306;2024-02-23T13:48:25;13.90;41.80
10316;DHT22;5203;48.976;8.306;2024-02-23T13:50:51;14.20;41.60
10316;DHT22;5203;48.976;8.306;2024-02-23T13:53:17;13.50;42.00
10316;DHT22;5203;48.976;8.306;2024-02-23T13:55:42;12.80;43.60
10316;DHT22;5203;48.976;8.306;2024-02-23T13:58:10;12.70;44.90
10316;DHT22;5203;48.976;8.306;2024-02-23T14:00:36;12.40;46.60
10316;DHT22;5203;48.976;8.306;2024-02-23T14:03:02;12.20;46.00
10316;DHT22;5203;48.976;8.306;2024-02-23T14:05:28;12.20;46.10
10316;DHT22;5203;48.976;8.306;2024-02-23T14:07:54;12.40;46.00
10316;DHT22;5203;48.976;8.306;2024-02-23T14:10:20;13.20;42.20
10316;DHT22;5203;48.976;8.306;2024-02-23T14:12:46;12.90;43.40
10316;DHT22;5203;48.976;8.306;2024-02-23T14:15:11;12.20;45.00
10316;DHT22;5203;48.976;8.306;2024-02-23T14:17:38;11.70;45.80
10316;DHT22;5203;48.976;8.306;2024-02-23T14:20:04;11.30;49.10
10316;DHT22;5203;48.976;8.306;2024-02-23T14:22:30;11.20;50.60
10316;DHT22;5203;48.976;8.306;2024-02-23T14:24:56;11.10;52.50
10316;DHT22;5203;48.976;8.306;2024-02-23T14:27:22;11.20;49.20
10316;DHT22;5203;48.976;8.306;2024-02-23T14:29:48;11.30;49.10
10316;DHT22;5203;48.976;8.306;2024-02-23T14:32:16;11.70;47.10
10316;DHT22;5203;48.976;8.306;2024-02-23T14:34:42;13.20;43.90
10316;DHT22;5203;48.976;8.306;2024-02-23T14:37:07;13.40;43.60
10316;DHT22;5203;48.976;8.306;2024-02-23T14:39:33;13.80;42.30
10316;DHT22;5203;48.976;8.306;2024-02-23T14:42:00;13.20;42.90
10316;DHT22;5203;48.976;8.306;2024-02-23T14:44:26;12.90;43.10
10316;DHT22;5203;48.976;8.306;2024-02-23T14:46:52;12.60;44.40
10316;DHT22;5203;48.976;8.306;2024-02-23T14:49:17;12.70;45.10
10316;DHT22;5203;48.976;8.306;2024-02-23T14:51:43;12.60;45.00
10316;DHT22;5203;48.976;8.306;2024-02-23T14:54:11;12.90;46.30
10316;DHT22;5203;48.976;8.306;2024-02-23T14:56:38;12.60;46.00
10316;DHT22;5203;48.976;8.306;2024-02-23T14:59:05;13.30;45.00
10316;DHT22;5203;48.976;8.306;2024-02-23T15:01:31;13.80;43.50
10316;DHT22;5203;48.976;8.306;2024-02-23T15:03:57;14.50;41.70
10316;DHT22;5203;48.976;8.306;2024-02-23T15:06:22;14.70;40.70
10316;DHT22;5203;48.976;8.306;2024-02-23T15:08:49;14.40;41.10
10316;DHT22;5203;48.976;8.306;2024-02-23T15:11:15;14.30;38.00
10316;DHT22;5203;48.976;8.306;2024-02-23T15:13:41;13.70;38.10
10316;DHT22;5203;48.976;8.306;2024-02-23T15:16:06;13.40;39.70
10316;DHT22;5203;48.976;8.306;2024-02-23T15:18:32;12.20;41.40
10316;DHT22;5203;48.976;8.306;2024-02-23T15:20:57;12.40;40.90
10316;DHT22;5203;48.976;8.306;2024-02-23T15:23:23;12.90;39.40
10316;DHT22;5203;48.976;8.306;2024-02-23T15:25:50;12.90;38.60
10316;DHT22;5203;48.976;8.306;2024-02-23T15:28:15;13.50;38.90
10316;DHT22;5203;48.976;8.306;2024-02-23T15:30:51;14.30;38.40
10316;DHT22;5203;48.976;8.306;2024-02-23T15:33:17;14.60;36.20
10316;DHT22;5203;48.976;8.306;2024-02-23T15:35:43;15.00;35.90
10316;DHT22;5203;48.976;8.306;2024-02-23T15:38:09;15.50;36.30
10316;DHT22;5203;48.976;8.306;2024-02-23T15:40:34;14.90;37.90
10316;DHT22;5203;48.976;8.306;2024-02-23T15:43:00;14.00;40.30
10316;DHT22;5203;48.976;8.306;2024-02-23T15:45:26;13.90;40.90
10316;DHT22;5203;48.976;8.306;2024-02-23T15:47:52;13.50;42.40
10316;DHT22;5203;48.976;8.306;2024-02-23T15:50:17;13.20;42.40
10316;DHT22;5203;48.976;8.306;2024-02-23T15:52:45;12.80;44.00
10316;DHT22;5203;48.976;8.306;2024-02-23T15:55:10;12.50;45.20
10316;DHT22;5203;48.976;8.306;2024-02-23T15:57:38;12.50;43.60
10316;DHT22;5203;48.976;8.306;2024-02-23T16:00:05;12.80;38.30
10316;DHT22;5203;48.976;8.306;2024-02-23T16:02:33;12.70;37.90
10316;DHT22;5203;48.976;8.306;2024-02-23T16:05:00;12.20;39.00
10316;DHT22;5203;48.976;8.306;2024-02-23T16:07:26;11.70;40.90
10316;DHT22;5203;48.976;8.306;2024-02-23T16:09:52;11.30;42.10